Currently 65°F in San Diego (City Heights), California, USA
65°F
72°F / 62°F
3 mph W
0.00"
Monday, June 18, 2018 8:06 PM PDT

San Diego (City Heights), California Weather Summary
Last 36 Hours

Temperature Winds Hourly Humidity Dewpoint
Time Report Norm Report Norm Max Gusts Precip. Rpt. Norm Rpt. Norm Pressure
1Mon 08:06 PM  64.8°F  67°F  3 mph W  2 mph  5 mph  0.00"  76%  74%  57°F  58°F  N/A
Mon 08:00 PM  65.0°F  67°F  calm  2 mph  8 mph  0.00"  75%  74%  56°F  58°F  N/A
Mon 07:00 PM  67.7°F  71°F  2 mph W  3 mph  9 mph  0.00"  69%  66%  57°F  58°F  N/A
Mon 06:00 PM  69.3°F  73°F  5 mph W  3 mph  13 mph  0.00"  67%  61%  57°F  58°F  N/A
Mon 05:00 PM  69.6°F  74°F  5 mph SW  4 mph  14 mph  0.00"  65%  57%  57°F  58°F  N/A
Mon 04:00 PM  70.5°F  75°F  5 mph SW  4 mph  14 mph  0.00"  64%  56%  57°F  58°F  N/A
Mon 03:00 PM  71.4°F  76°F  7 mph SW  4 mph  16 mph  0.00"  62%  55%  57°F  58°F  N/A
Mon 02:00 PM  71.3°F  76°F  6 mph SW  4 mph  15 mph  0.00"  63%  56%  58°F  58°F  N/A
2Mon 01:02 PM  72.0°F  75°F  5 mph W  4 mph  13 mph  ----  60%  58%  57°F  59°F  N/A
Mon 01:00 PM  71.9°F  75°F  5 mph W  4 mph  17 mph  0.00"  59%  58%  57°F  59°F  N/A
Mon 12:00 PM  71.3°F  74°F  6 mph W  4 mph  13 mph  0.00"  59%  60%  55°F  59°F  N/A
Mon 11:00 AM  70.5°F  73°F  2 mph W  3 mph  11 mph  0.00"  59%  63%  55°F  59°F  N/A
Mon 10:00 AM  71.0°F  71°F  1 mph S  3 mph  9 mph  0.00"  53%  67%  53°F  59°F  N/A
Mon 09:00 AM  68.8°F  68°F  calm  2 mph  7 mph  0.00"  56%  74%  52°F  59°F  N/A
Mon 08:00 AM  66.1°F  65°F  2 mph W  1 mph  7 mph  0.00"  60%  81%  51°F  58°F  N/A
Mon 07:00 AM  63.9°F  63°F  1 mph W  1 mph  5 mph  0.00"  66%  84%  52°F  58°F  N/A
Mon 06:00 AM  63.2°F  62°F  calm  1 mph  2 mph  0.00"  69%  85%  53°F  58°F  N/A
Mon 05:00 AM  63.0°F  62°F  calm  1 mph  none  0.00"  71%  85%  53°F  58°F  N/A
Mon 04:00 AM  62.8°F  63°F  calm  1 mph  4 mph  0.00"  74%  85%  54°F  58°F  N/A
Mon 03:00 AM  63.5°F  63°F  1 mph SE  calm  5 mph  0.00"  74%  85%  55°F  58°F  N/A
Mon 02:00 AM  62.9°F  63°F  1 mph NW  1 mph  5 mph  0.00"  78%  84%  56°F  58°F  N/A
Mon 01:00 AM  62.7°F  63°F  2 mph W  1 mph  6 mph  0.00"  79%  84%  56°F  58°F  N/A
3Mon 12:16 AM  62.5°F  64°F  1 mph W  1 mph  5 mph  ----  80%  83%  56°F  58°F  N/A
Mon 12:00 AM  62.5°F  64°F  3 mph W  1 mph  6 mph  0.00"  80%  83%  56°F  58°F  N/A
Sun 11:00 PM  62.2°F  64°F  2 mph NW  1 mph  6 mph  0.00"  80%  81%  56°F  58°F  N/A
Sun 10:00 PM  61.4°F  65°F  calm  1 mph  5 mph  0.00"  83%  80%  56°F  58°F  N/A
Sun 09:00 PM  61.5°F  66°F  3 mph W  1 mph  8 mph  0.00"  81%  78%  55°F  58°F  N/A
Sun 08:00 PM  62.7°F  67°F  5 mph S  2 mph  8 mph  0.00"  78%  74%  56°F  58°F  N/A
Sun 07:00 PM  65.7°F  70°F  3 mph S  3 mph  10 mph  0.00"  69%  66%  55°F  58°F  N/A
Sun 06:00 PM  67.9°F  73°F  3 mph S  3 mph  10 mph  0.00"  60%  61%  53°F  58°F  N/A
Sun 05:00 PM  67.8°F  74°F  4 mph S  4 mph  11 mph  0.00"  59%  58%  53°F  58°F  N/A
Sun 04:00 PM  68.5°F  75°F  6 mph SE  4 mph  13 mph  0.00"  57%  56%  52°F  58°F  N/A
Sun 03:00 PM  70.1°F  75°F  1 mph W  4 mph  12 mph  0.00"  55%  56%  53°F  58°F  N/A
Sun 02:00 PM  68.1°F  75°F  1 mph W  4 mph  12 mph  0.00"  58%  56%  52°F  58°F  N/A
Sun 01:00 PM  68.3°F  75°F  3 mph S  4 mph  11 mph  0.00"  59%  58%  53°F  59°F  N/A
Sun 12:00 PM  68.5°F  74°F  5 mph S  4 mph  11 mph  0.00"  59%  60%  53°F  59°F  N/A
Sun 11:00 AM  66.7°F  73°F  4 mph S  3 mph  8 mph  0.00"  62%  63%  53°F  59°F  N/A
Sun 10:00 AM  64.6°F  71°F  3 mph S  2 mph  8 mph  0.00"  67%  67%  53°F  59°F  N/A
Sun 09:00 AM  63.5°F  68°F  3 mph SE  2 mph  6 mph  0.00"  69%  74%  53°F  59°F  N/A

  1. Current weather data. No green row appears if the current weather data is also the high or low for the current day.
  2. High temperature for the current day.
  3. Low temperature for the current day.

The San Diego (City Height), California weather pages are a service of WeatherCurrents. City Heights is a San Diego community, located east of Balboa Park, near Interstate 15
Copyright ©Mon Jun 18 20:06:29 PDT 2018  WeatherCurrents. All rights reserved. - Submit questions and comments - Privacy Policy

This page automatically refreshes every 10 minutes.